createdAt,value
2022-12-26T00:00:11.948Z,68.41
2022-12-26T00:03:54.851Z,67.93
2022-12-26T00:07:37.827Z,68.29
2022-12-26T00:11:20.634Z,68.65
2022-12-26T00:15:05.263Z,68.46
2022-12-26T00:18:48.047Z,68.30
2022-12-26T00:22:30.739Z,68.40
2022-12-26T00:26:14.537Z,68.78
2022-12-26T00:29:57.245Z,67.90
2022-12-26T00:33:41.340Z,67.64
2022-12-26T00:37:24.111Z,67.68
2022-12-26T00:41:07.611Z,68.09
2022-12-26T00:44:50.347Z,68.11
2022-12-26T00:48:33.301Z,67.67
2022-12-26T00:52:17.328Z,67.72
2022-12-26T00:56:00.047Z,68.68
2022-12-26T00:59:42.768Z,68.18
2022-12-26T01:03:25.459Z,68.14
2022-12-26T01:07:08.200Z,68.23
2022-12-26T01:10:52.542Z,68.63
2022-12-26T01:14:35.204Z,68.42
2022-12-26T01:18:18.101Z,68.83
2022-12-26T01:22:00.863Z,68.59
2022-12-26T01:26:14.843Z,68.65
2022-12-26T01:29:47.747Z,68.94
2022-12-26T01:33:30.461Z,68.51
2022-12-26T01:37:14.176Z,68.33
2022-12-26T01:41:10.864Z,68.80
2022-12-26T01:45:00.586Z,68.25
2022-12-26T01:48:43.341Z,67.67
2022-12-26T01:52:30.727Z,68.15
2022-12-26T01:56:16.286Z,67.74
2022-12-26T02:00:02.630Z,67.78
2022-12-26T02:04:05.226Z,67.62
2022-12-26T02:07:48.280Z,67.53
2022-12-26T02:11:36.056Z,67.71
2022-12-26T02:15:20.189Z,67.62
2022-12-26T02:19:02.954Z,67.59
2022-12-26T02:23:19.593Z,67.56
2022-12-26T02:27:23.757Z,67.67
2022-12-26T02:31:10.457Z,67.27
2022-12-26T02:34:58.762Z,67.42
2022-12-26T02:38:48.803Z,67.66
2022-12-26T02:42:39.127Z,67.57
2022-12-26T02:46:47.756Z,67.66
2022-12-26T02:50:54.812Z,67.62
2022-12-26T02:54:57.673Z,66.98
2022-12-26T02:59:01.625Z,67.29
2022-12-26T03:03:06.565Z,66.84
2022-12-26T03:07:13.444Z,67.17
2022-12-26T03:11:14.946Z,66.71
2022-12-26T03:14:59.697Z,66.79
2022-12-26T03:18:59.281Z,66.37
2022-12-26T03:22:45.284Z,66.05
2022-12-26T03:26:43.901Z,65.85
2022-12-26T03:30:44.534Z,65.41
2022-12-26T03:34:29.207Z,65.45
2022-12-26T03:38:15.087Z,65.33
2022-12-26T03:42:19.084Z,65.27
2022-12-26T03:46:31.929Z,64.88
2022-12-26T03:50:48.200Z,65.00
2022-12-26T03:54:53.381Z,65.28
2022-12-26T03:58:57.765Z,64.91
2022-12-26T04:02:59.232Z,65.30
2022-12-26T04:07:05.167Z,65.28
2022-12-26T04:11:08.119Z,64.97
2022-12-26T04:15:12.421Z,65.31
2022-12-26T04:19:22.339Z,65.60
2022-12-26T04:23:27.771Z,66.35
2022-12-26T04:27:31.914Z,66.30
2022-12-26T04:31:35.600Z,66.09
2022-12-26T04:35:39.724Z,66.47
2022-12-26T04:39:44.554Z,66.18
2022-12-26T04:43:51.311Z,66.28
2022-12-26T04:47:34.778Z,66.11
2022-12-26T04:51:16.440Z,66.26
2022-12-26T04:55:00.515Z,66.11
2022-12-26T04:58:43.181Z,65.83
2022-12-26T05:02:43.585Z,66.12
2022-12-26T05:06:43.976Z,66.25
2022-12-26T05:10:29.090Z,66.23
2022-12-26T05:14:11.808Z,66.07
2022-12-26T05:18:12.163Z,66.47
2022-12-26T05:22:12.913Z,66.40
2022-12-26T05:26:14.171Z,66.66
2022-12-26T05:29:56.877Z,66.37
2022-12-26T05:33:57.319Z,66.52
2022-12-26T05:37:40.023Z,66.61
2022-12-26T05:41:24.269Z,66.62
2022-12-26T05:45:08.106Z,66.88
2022-12-26T05:48:50.742Z,67.10
2022-12-26T05:52:33.549Z,66.88
2022-12-26T05:56:17.896Z,67.19
2022-12-26T06:00:01.938Z,67.42
2022-12-26T06:03:47.522Z,67.45
2022-12-26T06:07:30.362Z,67.89
2022-12-26T06:11:14.229Z,67.68
2022-12-26T06:14:57.011Z,67.67
2022-12-26T06:18:41.549Z,68.10
2022-12-26T06:22:24.264Z,67.95
2022-12-26T06:26:09.107Z,67.75
2022-12-26T06:29:51.774Z,67.66
2022-12-26T06:33:34.553Z,68.17
2022-12-26T06:37:18.592Z,68.27
2022-12-26T06:41:01.283Z,67.74
2022-12-26T06:44:43.956Z,67.89
2022-12-26T06:48:27.131Z,67.58
2022-12-26T06:52:11.150Z,67.88
2022-12-26T06:55:55.167Z,67.86
2022-12-26T06:59:37.861Z,67.74
2022-12-26T07:03:20.494Z,67.85
2022-12-26T07:07:03.406Z,67.59
2022-12-26T07:10:46.053Z,67.49
2022-12-26T07:14:30.116Z,67.14
2022-12-26T07:18:12.767Z,66.73
2022-12-26T07:21:55.438Z,66.36
2022-12-26T07:25:38.163Z,66.60
2022-12-26T07:29:21.872Z,66.61
2022-12-26T07:33:05.927Z,66.46
2022-12-26T07:36:48.918Z,66.72
2022-12-26T07:40:31.582Z,66.25
2022-12-26T07:44:14.367Z,66.35
2022-12-26T07:47:57.319Z,65.86
2022-12-26T07:51:42.168Z,66.29
2022-12-26T07:55:24.809Z,66.29
2022-12-26T07:59:07.472Z,65.79
2022-12-26T08:02:51.594Z,65.74
2022-12-26T08:06:34.381Z,65.67
2022-12-26T08:10:18.905Z,65.42
2022-12-26T08:14:02.017Z,65.67
2022-12-26T08:17:44.686Z,65.41
2022-12-26T08:21:27.404Z,65.34
2022-12-26T08:25:11.859Z,65.17
2022-12-26T08:28:57.195Z,64.84
2022-12-26T08:32:42.499Z,65.02
2022-12-26T08:36:27.100Z,64.37
2022-12-26T08:40:11.166Z,64.80
2022-12-26T08:44:26.346Z,64.39
2022-12-26T08:47:59.558Z,64.12
2022-12-26T08:51:42.263Z,64.00
2022-12-26T08:55:24.968Z,64.07
2022-12-26T08:59:09.028Z,63.38
2022-12-26T09:02:51.861Z,63.37
2022-12-26T09:06:35.955Z,62.82
2022-12-26T09:10:18.845Z,62.36
2022-12-26T09:14:03.035Z,61.21
2022-12-26T09:17:47.076Z,60.72
2022-12-26T09:21:30.511Z,59.70
2022-12-26T09:25:13.153Z,58.87
2022-12-26T09:28:56.305Z,59.33
2022-12-26T09:32:39.035Z,58.61
2022-12-26T09:36:25.302Z,58.17
2022-12-26T09:40:11.602Z,57.12
2022-12-26T09:44:02.320Z,56.68
2022-12-26T09:47:53.708Z,56.42
2022-12-26T09:51:39.064Z,56.71
2022-12-26T09:55:37.067Z,56.71
2022-12-26T09:59:20.801Z,56.83
2022-12-26T10:03:03.525Z,56.94
2022-12-26T10:06:52.692Z,57.20
2022-12-26T10:10:42.658Z,56.10
2022-12-26T10:14:34.123Z,56.48
2022-12-26T10:18:27.151Z,55.04
2022-12-26T10:22:30.161Z,54.24
2022-12-26T10:26:15.534Z,54.05
2022-12-26T10:30:01.729Z,53.90
2022-12-26T10:33:48.261Z,53.29
2022-12-26T10:37:36.943Z,53.30
2022-12-26T10:41:24.605Z,53.53
2022-12-26T10:45:15.799Z,53.80
2022-12-26T10:48:58.887Z,53.22
2022-12-26T10:52:43.119Z,51.87
2022-12-26T10:56:26.498Z,52.31
2022-12-26T11:00:16.276Z,51.75
2022-12-26T11:04:00.198Z,51.68
2022-12-26T11:07:48.648Z,50.94
2022-12-26T11:11:45.987Z,51.27
2022-12-26T11:15:32.270Z,51.41
2022-12-26T11:19:27.794Z,51.65
2022-12-26T11:23:25.605Z,51.63
2022-12-26T11:27:20.166Z,52.00
2022-12-26T11:31:05.764Z,52.09
2022-12-26T11:34:49.550Z,52.22
2022-12-26T11:38:44.211Z,52.29
2022-12-26T11:42:27.813Z,52.60
2022-12-26T11:46:10.563Z,52.34
2022-12-26T11:49:56.179Z,52.71
2022-12-26T11:53:40.586Z,52.63
2022-12-26T11:57:29.049Z,52.49
2022-12-26T12:01:16.889Z,52.56
2022-12-26T12:05:05.560Z,53.65
2022-12-26T12:09:02.207Z,54.99
2022-12-26T12:12:55.053Z,56.29
2022-12-26T12:16:52.133Z,58.25
2022-12-26T12:20:40.904Z,60.80
2022-12-26T12:24:38.552Z,63.96
2022-12-26T12:28:32.759Z,66.27
2022-12-26T12:32:21.583Z,68.69
2022-12-26T12:36:10.540Z,72.04
2022-12-26T12:40:08.914Z,76.42
2022-12-26T12:43:56.651Z,79.86
2022-12-26T12:47:48.024Z,81.60
2022-12-26T12:51:35.961Z,83.51
2022-12-26T12:55:44.533Z,84.60
2022-12-26T12:59:33.267Z,85.91
2022-12-26T13:03:25.156Z,86.65
2022-12-26T13:07:17.613Z,87.68
2022-12-26T13:11:06.284Z,88.07
2022-12-26T13:14:54.265Z,89.11
2022-12-26T13:18:39.946Z,90.72
2022-12-26T13:22:26.931Z,92.51
2022-12-26T13:26:14.058Z,93.74
2022-12-26T13:29:58.869Z,94.57
2022-12-26T13:33:43.453Z,95.98
2022-12-26T13:37:57.299Z,95.33
2022-12-26T13:42:05.035Z,97.86
2022-12-26T13:45:51.818Z,95.71
2022-12-26T13:49:37.196Z,96.01
2022-12-26T13:53:32.502Z,96.77
2022-12-26T13:57:40.291Z,96.65
2022-12-26T14:01:36.091Z,95.62
2022-12-26T14:05:25.444Z,93.83
2022-12-26T14:09:32.830Z,95.12
2022-12-26T14:13:51.206Z,95.52
2022-12-26T14:17:41.731Z,95.73
2022-12-26T14:21:49.315Z,95.95
2022-12-26T14:25:39.942Z,95.78
2022-12-26T14:29:34.021Z,96.18
2022-12-26T14:33:25.959Z,96.70
2022-12-26T14:37:18.084Z,96.71
2022-12-26T14:41:03.209Z,97.36
2022-12-26T14:44:47.417Z,97.40
2022-12-26T14:49:00.933Z,97.57
2022-12-26T14:52:44.514Z,97.39
2022-12-26T14:56:36.136Z,99.48
2022-12-26T15:00:32.530Z,98.83
2022-12-26T15:04:25.724Z,97.95
2022-12-26T15:08:20.140Z,96.95
2022-12-26T15:12:15.270Z,98.53
2022-12-26T15:16:20.035Z,99.42
2022-12-26T15:20:32.108Z,99.09
2022-12-26T15:25:17.484Z,97.21
2022-12-26T15:29:23.970Z,97.68
2022-12-26T15:33:11.857Z,94.91
2022-12-26T15:37:00.267Z,93.25
2022-12-26T15:40:45.978Z,93.04
2022-12-26T15:44:32.207Z,93.79
2022-12-26T15:48:27.359Z,93.38
2022-12-26T15:52:15.967Z,93.90
2022-12-26T15:56:24.034Z,92.11
2022-12-26T16:00:13.102Z,91.78
2022-12-26T16:03:57.959Z,90.89
2022-12-26T16:07:42.574Z,90.91
2022-12-26T16:11:28.526Z,92.32
2022-12-26T16:15:17.715Z,92.40
2022-12-26T16:19:16.228Z,91.52
2022-12-26T16:22:58.963Z,93.07
2022-12-26T16:26:43.551Z,92.71
2022-12-26T16:30:28.154Z,93.77
2022-12-26T16:34:16.573Z,93.02
2022-12-26T16:38:00.556Z,92.09
2022-12-26T16:42:00.122Z,93.20
2022-12-26T16:45:42.982Z,93.31
2022-12-26T16:49:27.387Z,93.90
2022-12-26T16:53:12.866Z,95.08
2022-12-26T16:57:01.696Z,94.46
2022-12-26T17:01:03.738Z,94.71
2022-12-26T17:04:58.276Z,94.92
2022-12-26T17:08:43.547Z,96.32
2022-12-26T17:12:28.553Z,94.90
2022-12-26T17:16:11.445Z,95.37
2022-12-26T17:19:57.623Z,95.35
2022-12-26T17:23:41.331Z,96.32
2022-12-26T17:27:25.663Z,96.41
2022-12-26T17:31:14.205Z,96.57
2022-12-26T17:35:01.123Z,94.45
2022-12-26T17:38:45.450Z,94.61
2022-12-26T17:42:28.146Z,93.86
2022-12-26T17:46:13.756Z,94.53
2022-12-26T17:49:58.476Z,94.49
2022-12-26T17:53:42.261Z,92.89
2022-12-26T17:57:26.506Z,92.26
2022-12-26T18:01:09.893Z,91.09
2022-12-26T18:04:53.800Z,91.51
2022-12-26T18:08:40.343Z,91.18
2022-12-26T18:12:23.087Z,90.17
2022-12-26T18:16:07.529Z,90.64
2022-12-26T18:19:50.359Z,89.20
2022-12-26T18:23:33.228Z,88.75
2022-12-26T18:27:22.739Z,88.88
2022-12-26T18:31:05.749Z,89.06
2022-12-26T18:34:48.458Z,87.01
2022-12-26T18:38:31.199Z,86.87
2022-12-26T18:42:14.566Z,88.72
2022-12-26T18:46:01.030Z,88.22
2022-12-26T18:49:44.496Z,87.55
2022-12-26T18:53:29.763Z,86.23
2022-12-26T18:57:17.610Z,85.74
2022-12-26T19:01:03.527Z,85.70
2022-12-26T19:04:48.384Z,84.78
2022-12-26T19:08:31.714Z,85.44
2022-12-26T19:12:14.811Z,84.64
2022-12-26T19:15:57.534Z,84.60
2022-12-26T19:19:43.511Z,83.48
2022-12-26T19:23:26.193Z,82.04
2022-12-26T19:27:08.922Z,80.50
2022-12-26T19:30:51.599Z,81.17
2022-12-26T19:34:34.316Z,80.45
2022-12-26T19:38:18.372Z,80.72
2022-12-26T19:42:01.056Z,80.39
2022-12-26T19:45:43.798Z,80.63
2022-12-26T19:49:33.418Z,79.71
2022-12-26T19:53:17.910Z,78.86
2022-12-26T19:57:00.641Z,78.36
2022-12-26T20:00:43.813Z,78.85
2022-12-26T20:04:26.798Z,78.83
2022-12-26T20:08:10.317Z,78.99
2022-12-26T20:11:54.607Z,78.83
2022-12-26T20:15:37.260Z,77.67
2022-12-26T20:19:20.246Z,76.88
2022-12-26T20:23:02.989Z,77.18
2022-12-26T20:26:45.852Z,76.73
2022-12-26T20:30:30.016Z,75.33
2022-12-26T20:34:12.829Z,74.95
2022-12-26T20:37:55.503Z,75.12
2022-12-26T20:41:38.535Z,74.17
2022-12-26T20:45:21.237Z,73.84
2022-12-26T20:49:05.725Z,73.88
2022-12-26T20:52:48.527Z,74.23
2022-12-26T20:56:31.211Z,73.42
2022-12-26T21:00:15.137Z,72.39
2022-12-26T21:03:58.382Z,73.83
2022-12-26T21:07:42.414Z,74.79
2022-12-26T21:11:27.086Z,75.86
2022-12-26T21:15:10.692Z,77.38
2022-12-26T21:18:53.675Z,80.45
2022-12-26T21:22:36.325Z,78.17
2022-12-26T21:26:20.402Z,80.93
2022-12-26T21:30:03.128Z,84.31
2022-12-26T21:33:45.812Z,88.83
2022-12-26T21:37:45.739Z,92.69
2022-12-26T21:41:29.784Z,95.22
2022-12-26T21:45:12.718Z,98.12
2022-12-26T21:48:55.368Z,100.00
2022-12-26T21:52:38.063Z,100.00
2022-12-26T21:56:20.808Z,100.00
2022-12-26T22:00:05.472Z,100.00
2022-12-26T22:04:05.734Z,100.00
2022-12-26T22:07:48.967Z,100.00
2022-12-26T22:11:49.384Z,100.00
2022-12-26T22:15:51.069Z,100.00
2022-12-26T22:19:33.822Z,100.00
2022-12-26T22:23:16.488Z,100.00
2022-12-26T22:26:59.205Z,100.00
2022-12-26T22:30:48.955Z,100.00
2022-12-26T22:34:31.627Z,100.00
2022-12-26T22:38:14.393Z,100.00
2022-12-26T22:42:02.493Z,100.00
2022-12-26T22:45:45.470Z,100.00
2022-12-26T22:49:29.550Z,100.00
2022-12-26T22:53:12.929Z,100.00
2022-12-26T22:56:55.720Z,100.00
2022-12-26T23:00:38.415Z,100.00
2022-12-26T23:04:21.682Z,100.00
2022-12-26T23:08:07.155Z,100.00
2022-12-26T23:12:11.521Z,100.00
2022-12-26T23:15:57.653Z,100.00
2022-12-26T23:20:02.711Z,100.00
2022-12-26T23:24:03.973Z,100.00
2022-12-26T23:28:04.286Z,100.00
2022-12-26T23:31:46.965Z,100.00
2022-12-26T23:35:30.072Z,100.00
2022-12-26T23:39:14.248Z,100.00
2022-12-26T23:42:57.166Z,100.00
2022-12-26T23:46:41.089Z,100.00
2022-12-26T23:50:23.889Z,100.00
2022-12-26T23:54:06.752Z,100.00
2022-12-26T23:57:50.909Z,100.00
